createdAt,value
2018-02-22T00:00:15.620Z,20.17
2018-02-22T00:02:46.040Z,21.30
2018-02-22T00:05:15.901Z,22.33
2018-02-22T00:07:45.611Z,19.60
2018-02-22T00:10:16.051Z,20.37
2018-02-22T00:12:45.796Z,20.88
2018-02-22T00:15:15.546Z,21.02
2018-02-22T00:17:45.286Z,21.37
2018-02-22T00:20:15.048Z,18.87
2018-02-22T00:22:44.811Z,20.02
2018-02-22T00:25:14.660Z,20.45
2018-02-22T00:27:44.381Z,19.27
2018-02-22T00:30:14.071Z,19.60
2018-02-22T00:32:43.843Z,19.95
2018-02-22T00:35:14.288Z,19.17
2018-02-22T00:37:44.017Z,20.00
2018-02-22T00:40:13.868Z,19.00
2018-02-22T00:42:43.575Z,19.67
2018-02-22T00:45:13.248Z,20.83
2018-02-22T00:47:42.993Z,20.67
2018-02-22T00:50:13.486Z,19.85
2018-02-22T00:52:43.213Z,20.42
2018-02-22T00:55:13.144Z,20.33
2018-02-22T00:57:42.820Z,20.98
2018-02-22T01:00:12.531Z,20.58
2018-02-22T01:02:42.230Z,19.83
2018-02-22T01:05:12.760Z,21.02
2018-02-22T01:07:42.475Z,19.85
2018-02-22T01:10:12.281Z,20.52
2018-02-22T01:12:42.116Z,20.73
2018-02-22T01:15:11.837Z,20.88
2018-02-22T01:17:41.572Z,19.95
2018-02-22T01:20:11.476Z,20.08
2018-02-22T01:22:41.154Z,19.55
2018-02-22T01:25:10.850Z,19.90
2018-02-22T01:27:41.343Z,18.27
2018-02-22T01:30:11.105Z,20.20
2018-02-22T01:32:40.831Z,20.35
2018-02-22T01:35:10.768Z,20.65
2018-02-22T01:37:41.283Z,20.83
2018-02-22T01:40:10.996Z,20.33
2018-02-22T01:42:40.716Z,21.02
2018-02-22T01:45:10.796Z,21.20
2018-02-22T01:47:40.468Z,19.30
2018-02-22T01:50:10.295Z,19.95
2018-02-22T01:52:39.968Z,21.23
2018-02-22T01:55:09.958Z,18.87
2018-02-22T01:57:39.646Z,19.62
2018-02-22T02:00:09.456Z,21.00
2018-02-22T02:02:39.206Z,19.85
2018-02-22T02:05:08.934Z,20.12
2018-02-22T02:07:38.713Z,19.25
2018-02-22T02:10:08.564Z,19.10
2018-02-22T02:12:38.277Z,20.60
2018-02-22T02:15:08.012Z,19.45
2018-02-22T02:17:37.704Z,19.80
2018-02-22T02:20:07.448Z,20.25
2018-02-22T02:28:08.572Z,20.08
2018-02-22T02:30:38.280Z,18.73
2018-02-22T02:33:07.984Z,18.58
2018-02-22T02:35:37.727Z,20.00
2018-02-22T02:38:07.423Z,18.65
2018-02-22T02:40:37.156Z,19.30
2018-02-22T02:43:06.883Z,20.45
2018-02-22T02:45:36.624Z,19.33
2018-02-22T02:48:06.336Z,20.83
2018-02-22T02:50:36.019Z,18.15
2018-02-22T02:53:06.763Z,19.55
2018-02-22T02:55:36.444Z,18.62
2018-02-22T02:58:06.161Z,19.27
2018-02-22T03:00:35.922Z,18.52
2018-02-22T03:03:05.648Z,19.65
2018-02-22T03:05:35.622Z,19.08
2018-02-22T03:08:05.316Z,19.00
2018-02-22T03:10:34.999Z,19.23
2018-02-22T03:13:05.480Z,19.20
2018-02-22T03:15:35.179Z,18.45
2018-02-22T03:18:04.877Z,19.58
2018-02-22T03:20:35.331Z,18.10
2018-02-22T03:23:05.128Z,18.25
2018-02-22T03:25:34.943Z,19.05
2018-02-22T03:28:04.683Z,18.87
2018-02-22T03:30:35.160Z,18.55
2018-02-22T03:33:04.886Z,19.23
2018-02-22T03:35:34.558Z,19.40
2018-02-22T03:38:05.112Z,19.58
2018-02-22T03:40:35.584Z,20.05
2018-02-22T03:43:05.301Z,19.35
2018-02-22T03:45:35.045Z,18.60
2018-02-22T03:48:04.748Z,17.12
2018-02-22T03:50:34.433Z,18.10
2018-02-22T03:53:04.934Z,19.60
2018-02-22T03:55:34.748Z,18.50
2018-02-22T03:58:04.553Z,20.58
2018-02-22T04:00:34.346Z,16.23
2018-02-22T04:03:04.777Z,19.05
2018-02-22T04:05:35.239Z,19.23
2018-02-22T04:08:05.048Z,17.87
2018-02-22T04:10:35.531Z,18.05
2018-02-22T04:13:05.205Z,18.85
2018-02-22T04:15:35.689Z,18.85
2018-02-22T04:18:05.451Z,18.67
2018-02-22T04:20:36.011Z,16.90
2018-02-22T04:23:05.767Z,18.10
2018-02-22T04:25:35.508Z,17.87
2018-02-22T04:28:05.252Z,18.77
2018-02-22T04:30:35.052Z,17.25
2018-02-22T04:33:04.787Z,19.12
2018-02-22T04:35:34.495Z,19.77
2018-02-22T04:38:04.329Z,16.77
2018-02-22T04:40:33.980Z,18.65
2018-02-22T04:43:04.460Z,17.87
2018-02-22T04:45:34.159Z,17.73
2018-02-22T04:48:03.975Z,18.35
2018-02-22T04:50:33.688Z,18.87
2018-02-22T04:53:04.379Z,18.52
2018-02-22T04:55:34.093Z,16.12
2018-02-22T04:58:03.864Z,18.23
2018-02-22T05:00:35.091Z,17.80
2018-02-22T05:03:09.602Z,18.15
2018-02-22T05:05:42.267Z,18.55
2018-02-22T05:11:20.711Z,17.58
2018-02-22T05:20:33.377Z,15.25
2018-02-22T05:23:03.093Z,17.77
2018-02-22T05:25:32.923Z,17.90
2018-02-22T05:28:02.645Z,18.25
2018-02-22T05:30:32.493Z,16.25
2018-02-22T05:33:03.082Z,17.65
2018-02-22T05:35:33.646Z,16.85
2018-02-22T05:38:03.336Z,17.67
2018-02-22T05:40:33.148Z,17.95
2018-02-22T05:43:02.871Z,18.37
2018-02-22T05:45:32.731Z,16.73
2018-02-22T05:48:02.414Z,17.45
2018-02-22T05:50:32.215Z,17.33
2018-02-22T05:53:02.712Z,17.42
2018-02-22T05:55:32.464Z,16.85
2018-02-22T05:58:02.272Z,17.62
2018-02-22T06:00:32.073Z,16.77
2018-02-22T06:03:01.754Z,16.80
2018-02-22T06:05:32.244Z,17.05
2018-02-22T06:08:01.948Z,17.40
2018-02-22T06:10:32.163Z,17.33
2018-02-22T06:13:01.912Z,17.48
2018-02-22T06:15:31.701Z,16.92
2018-02-22T06:18:01.600Z,17.52
2018-02-22T06:20:32.136Z,17.60
2018-02-22T06:23:01.842Z,17.17
2018-02-22T06:25:31.532Z,16.73
2018-02-22T06:28:01.358Z,17.83
2018-02-22T06:30:31.077Z,15.93
2018-02-22T06:33:00.863Z,19.15
2018-02-22T06:35:31.312Z,16.87
2018-02-22T06:38:01.182Z,17.10
2018-02-22T06:40:30.950Z,17.98
2018-02-22T06:43:01.645Z,19.35
2018-02-22T06:45:31.546Z,17.75
2018-02-22T06:48:01.418Z,17.17
2018-02-22T06:50:31.159Z,17.83
2018-02-22T06:53:01.629Z,17.37
2018-02-22T06:55:31.416Z,17.08
2018-02-22T06:58:01.865Z,18.83
2018-02-22T07:00:32.401Z,19.85
2018-02-22T07:03:02.892Z,18.17
2018-02-22T07:05:32.951Z,17.17
2018-02-22T07:08:02.786Z,20.15
2018-02-22T07:10:32.498Z,17.40
2018-02-22T07:13:02.199Z,18.98
2018-02-22T07:15:31.905Z,19.95
2018-02-22T07:18:02.613Z,19.20
2018-02-22T07:20:33.352Z,18.85
2018-02-22T07:23:03.770Z,19.12
2018-02-22T07:25:33.463Z,19.08
2018-02-22T07:28:03.171Z,16.65
2018-02-22T07:30:39.471Z,20.17
2018-02-22T07:33:09.328Z,18.12
2018-02-22T07:35:39.975Z,17.05
2018-02-22T07:38:09.749Z,17.62
2018-02-22T07:40:39.549Z,18.33
2018-02-22T07:43:09.287Z,15.65
2018-02-22T07:45:39.195Z,17.37
2018-02-22T07:48:09.003Z,17.10
2018-02-22T07:50:38.832Z,17.37
2018-02-22T07:53:08.671Z,17.92
2018-02-22T07:55:39.344Z,16.12
2018-02-22T07:58:09.208Z,17.48
2018-02-22T08:00:39.739Z,17.90
2018-02-22T08:03:09.480Z,15.20
2018-02-22T08:05:39.190Z,16.73
2018-02-22T08:08:09.772Z,15.85
2018-02-22T08:10:39.575Z,17.02
2018-02-22T08:13:09.256Z,17.05
2018-02-22T08:15:39.023Z,16.77
2018-02-22T08:18:08.905Z,16.23
2018-02-22T08:20:38.613Z,16.48
2018-02-22T08:23:09.154Z,14.98
2018-02-22T08:25:38.848Z,16.90
2018-02-22T08:28:08.548Z,16.02
2018-02-22T08:30:38.304Z,16.80
2018-02-22T08:33:08.077Z,15.23
2018-02-22T08:35:38.590Z,16.65
2018-02-22T08:38:08.508Z,16.27
2018-02-22T08:40:38.307Z,15.55
2018-02-22T08:43:08.043Z,16.58
2018-02-22T08:45:37.843Z,16.08
2018-02-22T08:48:07.619Z,16.05
2018-02-22T08:50:38.080Z,15.80
2018-02-22T08:53:07.819Z,16.05
2018-02-22T08:55:37.529Z,14.23
2018-02-22T08:58:07.245Z,15.15
2018-02-22T09:00:36.978Z,15.98
2018-02-22T09:03:06.825Z,15.18
2018-02-22T09:05:36.529Z,16.62
2018-02-22T09:08:06.297Z,14.60
2018-02-22T09:10:36.095Z,15.90
2018-02-22T09:13:05.795Z,15.95
2018-02-22T09:15:35.568Z,15.48
2018-02-22T09:18:05.285Z,15.05
2018-02-22T09:20:35.017Z,15.30
2018-02-22T09:23:05.498Z,14.25
2018-02-22T09:25:35.281Z,14.45
2018-02-22T09:28:05.870Z,14.52
2018-02-22T09:30:36.349Z,13.23
2018-02-22T09:33:06.190Z,14.40
2018-02-22T09:35:36.664Z,15.23
2018-02-22T09:38:06.433Z,15.30
2018-02-22T09:40:36.128Z,15.70
2018-02-22T09:43:05.832Z,15.38
2018-02-22T09:45:35.533Z,14.95
2018-02-22T09:48:05.484Z,14.32
2018-02-22T09:50:35.229Z,14.05
2018-02-22T09:53:04.931Z,15.13
2018-02-22T09:55:34.827Z,14.82
2018-02-22T09:58:04.576Z,15.05
2018-02-22T10:00:35.178Z,14.13
2018-02-22T10:03:05.838Z,15.63
2018-02-22T10:05:35.589Z,13.93
2018-02-22T10:08:05.312Z,12.37
2018-02-22T10:10:35.880Z,13.55
2018-02-22T10:13:05.756Z,14.38
2018-02-22T10:15:35.474Z,14.48
2018-02-22T10:18:05.175Z,12.43
2018-02-22T10:20:36.417Z,13.32
2018-02-22T10:23:06.076Z,12.88
2018-02-22T10:25:35.910Z,13.60
2018-02-22T10:28:05.643Z,13.05
2018-02-22T10:30:35.399Z,13.68
2018-02-22T10:33:06.089Z,12.57
2018-02-22T10:35:35.804Z,13.48
2018-02-22T10:38:05.492Z,12.25
2018-02-22T10:40:35.237Z,13.62
2018-02-22T10:43:04.947Z,11.63
2018-02-22T10:45:35.416Z,11.95
2018-02-22T10:48:05.340Z,13.65
2018-02-22T10:50:35.045Z,12.43
2018-02-22T10:53:04.788Z,11.60
2018-02-22T10:55:34.538Z,15.05
2018-02-22T10:58:04.271Z,13.43
2018-02-22T11:00:38.038Z,14.68
2018-02-22T11:03:07.720Z,14.30
2018-02-22T11:05:37.561Z,12.65
2018-02-22T11:08:07.989Z,12.63
2018-02-22T11:10:38.480Z,11.85
2018-02-22T11:13:08.236Z,11.10
2018-02-22T11:15:38.824Z,11.70
2018-02-22T11:18:08.625Z,11.40
2018-02-22T11:20:39.193Z,11.50
2018-02-22T11:23:09.347Z,12.00
2018-02-22T11:25:39.130Z,11.10
2018-02-22T11:28:08.924Z,10.27
2018-02-22T11:30:38.757Z,10.25
2018-02-22T11:33:09.236Z,11.05
2018-02-22T11:35:38.932Z,9.88
2018-02-22T11:38:09.493Z,11.52
2018-02-22T11:40:39.194Z,10.07
2018-02-22T11:43:09.809Z,9.52
2018-02-22T11:45:39.517Z,9.85
2018-02-22T11:48:09.215Z,9.93
2018-02-22T11:50:38.946Z,9.98
2018-02-22T11:53:08.672Z,9.95
2018-02-22T11:55:38.384Z,9.45
2018-02-22T11:58:08.828Z,8.77
2018-02-22T12:00:38.695Z,9.18
2018-02-22T12:03:09.173Z,8.63
2018-02-22T12:05:38.925Z,8.05
2018-02-22T12:08:08.583Z,8.43
2018-02-22T12:10:39.105Z,8.27
2018-02-22T12:13:08.971Z,8.23
2018-02-22T12:15:39.336Z,7.32
2018-02-22T12:18:09.129Z,7.80
2018-02-22T12:20:38.815Z,7.37
2018-02-22T12:23:08.705Z,8.55
2018-02-22T12:25:38.514Z,8.32
2018-02-22T12:28:08.223Z,7.80
2018-02-22T12:30:37.991Z,7.32
2018-02-22T12:33:07.716Z,7.60
2018-02-22T12:35:37.381Z,7.93
2018-02-22T12:38:07.089Z,8.45
2018-02-22T12:40:36.947Z,7.80
2018-02-22T12:43:06.849Z,6.68
2018-02-22T12:45:36.606Z,7.78
2018-02-22T12:48:06.497Z,7.20
2018-02-22T12:50:36.250Z,6.65
2018-02-22T12:53:06.287Z,5.70
2018-02-22T12:55:36.030Z,5.78
2018-02-22T12:58:05.839Z,6.40
2018-02-22T13:00:35.572Z,6.20
2018-02-22T13:03:06.100Z,5.97
2018-02-22T13:05:35.933Z,6.12
2018-02-22T13:08:05.666Z,6.72
2018-02-22T13:10:35.560Z,5.25
2018-02-22T13:13:05.380Z,6.00
2018-02-22T13:15:35.203Z,5.32
2018-02-22T13:18:04.973Z,5.37
2018-02-22T13:20:35.568Z,5.45
2018-02-22T13:23:05.317Z,6.18
2018-02-22T13:25:35.040Z,6.10
2018-02-22T13:28:05.246Z,5.30
2018-02-22T13:30:34.976Z,5.55
2018-02-22T13:34:24.084Z,5.25
2018-02-22T13:36:53.841Z,5.50
2018-02-22T13:39:23.645Z,5.10
2018-02-22T13:41:54.147Z,5.00
2018-02-22T13:45:40.141Z,5.65
2018-02-22T13:48:09.934Z,5.00
2018-02-22T13:50:57.256Z,6.12
2018-02-22T13:53:27.081Z,5.62
2018-02-22T13:55:57.988Z,5.60
2018-02-22T13:58:27.696Z,5.28
2018-02-22T14:03:05.233Z,5.65
2018-02-22T14:05:35.719Z,6.32
2018-02-22T14:08:06.223Z,5.53
2018-02-22T14:10:36.022Z,5.90
2018-02-22T14:13:05.749Z,5.62
2018-02-22T14:15:35.568Z,4.82
2018-02-22T14:18:05.399Z,5.93
2018-02-22T14:20:35.383Z,6.18
2018-02-22T14:23:05.910Z,6.20
2018-02-22T14:25:35.817Z,6.18
2018-02-22T14:28:05.675Z,6.28
2018-02-22T14:30:36.165Z,6.22
2018-02-22T14:33:05.956Z,6.03
2018-02-22T14:35:35.803Z,5.72
2018-02-22T14:38:05.539Z,5.75
2018-02-22T14:40:35.491Z,5.75
2018-02-22T14:43:05.392Z,6.07
2018-02-22T14:45:35.212Z,6.72
2018-02-22T14:48:04.975Z,6.97
2018-02-22T14:50:34.937Z,7.07
2018-02-22T14:53:04.685Z,7.45
2018-02-22T14:55:34.530Z,7.43
2018-02-22T14:58:04.283Z,7.85
2018-02-22T15:00:34.809Z,7.05
2018-02-22T15:03:05.312Z,8.05
2018-02-22T15:05:35.600Z,7.65
2018-02-22T15:08:06.282Z,7.68
2018-02-22T15:10:36.072Z,7.87
2018-02-22T15:13:07.765Z,7.87
2018-02-22T15:15:37.546Z,8.30
2018-02-22T15:18:08.453Z,7.97
2018-02-22T15:20:38.155Z,7.12
2018-02-22T15:23:08.389Z,7.35
2018-02-22T15:25:38.199Z,8.35
2018-02-22T15:28:08.006Z,7.57
2018-02-22T15:30:38.569Z,7.30
2018-02-22T15:33:08.306Z,8.50
2018-02-22T15:35:38.041Z,8.38
2018-02-22T15:38:07.864Z,8.27
2018-02-22T15:40:37.936Z,8.10
2018-02-22T15:43:08.172Z,7.78
2018-02-22T15:45:38.916Z,8.60
2018-02-22T15:48:09.504Z,8.13
2018-02-22T15:50:39.529Z,9.18
2018-02-22T15:53:09.295Z,9.32
2018-02-22T15:55:39.114Z,9.02
2018-02-22T15:58:08.948Z,9.02
2018-02-22T16:00:39.458Z,7.95
2018-02-22T16:03:09.264Z,10.10
2018-02-22T16:05:39.012Z,10.38
2018-02-22T16:08:09.231Z,10.38
2018-02-22T16:10:38.949Z,10.50
2018-02-22T16:13:08.655Z,9.00
2018-02-22T16:15:38.527Z,10.27
2018-02-22T16:18:08.447Z,9.77
2018-02-22T16:20:38.247Z,10.05
2018-02-22T16:23:08.804Z,8.88
2018-02-22T16:25:38.579Z,10.02
2018-02-22T16:28:08.418Z,9.95
2018-02-22T16:30:38.171Z,10.63
2018-02-22T16:33:07.884Z,10.40
2018-02-22T16:35:37.709Z,11.07
2018-02-22T16:38:07.418Z,10.93
2018-02-22T16:40:37.254Z,10.77
2018-02-22T16:43:07.095Z,10.10
2018-02-22T16:45:38.197Z,11.60
2018-02-22T16:48:07.959Z,11.77
2018-02-22T16:50:38.617Z,11.10
2018-02-22T16:53:08.478Z,10.30
2018-02-22T16:55:39.022Z,11.30
2018-02-22T16:58:08.873Z,11.68
2018-02-22T17:00:39.147Z,11.30
2018-02-22T17:03:08.990Z,11.25
2018-02-22T17:05:38.893Z,12.37
2018-02-22T17:08:08.694Z,11.75
2018-02-22T17:10:38.632Z,10.43
2018-02-22T17:13:08.529Z,12.00
2018-02-22T17:15:38.324Z,9.88
2018-02-22T17:18:09.368Z,10.68
2018-02-22T17:20:39.104Z,11.88
2018-02-22T17:23:09.038Z,12.02
2018-02-22T17:25:37.819Z,11.73
2018-02-22T17:28:13.619Z,11.93
2018-02-22T17:30:49.359Z,12.27
2018-02-22T17:33:19.309Z,11.85
2018-02-22T17:35:49.374Z,11.60
2018-02-22T17:38:19.258Z,9.82
2018-02-22T17:40:49.259Z,11.20
2018-02-22T17:43:19.338Z,11.60
2018-02-22T17:45:49.144Z,10.90
2018-02-22T17:48:18.994Z,11.55
2018-02-22T17:50:48.839Z,11.40
2018-02-22T17:53:19.439Z,11.10
2018-02-22T17:55:49.268Z,11.95
2018-02-22T17:58:19.301Z,11.23
2018-02-22T18:00:49.485Z,11.25
2018-02-22T18:03:19.593Z,10.55
2018-02-22T18:05:49.426Z,11.10
2018-02-22T18:08:20.020Z,11.48
2018-02-22T18:10:50.196Z,10.57
2018-02-22T18:13:19.964Z,11.20
2018-02-22T18:15:49.989Z,10.50
2018-02-22T18:18:19.778Z,10.93
2018-02-22T18:20:50.440Z,10.85
2018-02-22T18:23:20.489Z,11.20
2018-02-22T18:25:50.636Z,10.45
2018-02-22T18:28:20.473Z,11.32
2018-02-22T18:30:50.484Z,10.60
2018-02-22T18:33:20.299Z,11.60
2018-02-22T18:35:51.300Z,11.15
2018-02-22T18:38:21.148Z,11.18
2018-02-22T18:40:59.101Z,11.80
2018-02-22T18:43:33.733Z,11.75
2018-02-22T18:46:03.594Z,11.93
2018-02-22T18:48:33.583Z,11.52
2018-02-22T18:51:05.287Z,11.52
2018-02-22T18:53:35.122Z,11.27
2018-02-22T18:56:06.362Z,11.23
2018-02-22T18:58:42.496Z,11.32
2018-02-22T19:01:13.666Z,11.68
2018-02-22T19:03:45.256Z,12.15
2018-02-22T19:06:16.716Z,11.23
2018-02-22T19:08:47.969Z,11.07
2018-02-22T19:11:20.279Z,11.95
2018-02-22T19:13:51.140Z,11.20
2018-02-22T19:16:22.683Z,11.38
2018-02-22T19:18:52.863Z,13.00
2018-02-22T19:21:22.798Z,11.15
2018-02-22T19:23:53.130Z,11.32
2018-02-22T19:26:23.303Z,11.68
2018-02-22T19:28:53.488Z,10.85
2018-02-22T19:31:23.605Z,12.60
2018-02-22T19:33:54.024Z,10.32
2018-02-22T19:36:24.221Z,11.12
2018-02-22T19:38:54.097Z,11.10
2018-02-22T19:41:24.339Z,10.85
2018-02-22T19:43:54.361Z,10.10
2018-02-22T19:46:24.832Z,11.10
2018-02-22T19:48:54.625Z,11.15
2018-02-22T19:51:25.125Z,10.88
2018-02-22T19:53:55.205Z,10.20
2018-02-22T19:56:25.354Z,10.63
2018-02-22T19:58:55.306Z,10.63
2018-02-22T20:01:25.270Z,11.80
2018-02-22T20:03:55.650Z,10.05
2018-02-22T20:06:26.430Z,10.95
2018-02-22T20:08:56.413Z,9.90
2018-02-22T20:11:26.371Z,10.48
2018-02-22T20:13:56.565Z,10.80
2018-02-22T20:16:26.652Z,10.20
2018-02-22T20:18:56.676Z,10.55
2018-02-22T20:21:26.860Z,10.38
2018-02-22T20:23:56.908Z,10.50
2018-02-22T20:26:27.017Z,10.15
2018-02-22T20:28:57.840Z,9.85
2018-02-22T20:31:28.582Z,9.88
2018-02-22T20:33:58.358Z,10.45
2018-02-22T20:36:28.998Z,9.73
2018-02-22T20:38:58.910Z,10.57
2018-02-22T20:41:28.917Z,9.93
2018-02-22T20:43:59.566Z,11.25
2018-02-22T20:46:29.537Z,9.70
2018-02-22T20:48:59.349Z,10.27
2018-02-22T20:51:29.697Z,10.13
2018-02-22T20:53:59.529Z,10.10
2018-02-22T20:56:29.419Z,9.73
2018-02-22T20:59:01.276Z,10.23
2018-02-22T21:01:32.000Z,10.55
2018-02-22T21:04:03.519Z,11.23
2018-02-22T21:06:33.613Z,10.90
2018-02-22T21:09:04.284Z,12.02
2018-02-22T21:11:35.062Z,10.88
2018-02-22T21:14:05.410Z,11.23
2018-02-22T21:16:35.743Z,10.68
2018-02-22T21:19:06.283Z,12.02
2018-02-22T21:21:36.051Z,11.50
2018-02-22T21:24:06.058Z,11.85
2018-02-22T21:26:35.843Z,11.43
2018-02-22T21:29:09.552Z,10.60
2018-02-22T21:31:41.140Z,12.02
2018-02-22T21:34:12.556Z,12.13
2018-02-22T21:36:43.980Z,13.40
2018-02-22T21:39:15.986Z,12.07
2018-02-22T21:41:47.139Z,12.15
2018-02-22T21:44:16.865Z,12.23
2018-02-22T21:46:46.751Z,12.18
2018-02-22T21:49:16.496Z,12.52
2018-02-22T21:51:54.038Z,13.02
2018-02-22T21:54:23.900Z,12.35
2018-02-22T21:56:53.662Z,11.75
2018-02-22T21:59:23.412Z,13.43
2018-02-22T22:01:59.509Z,12.57
2018-02-22T22:04:29.332Z,12.48
2018-02-22T22:06:59.139Z,12.15
2018-02-22T22:09:28.876Z,12.18
2018-02-22T22:11:58.780Z,13.00
2018-02-22T22:14:28.583Z,13.15
2018-02-22T22:16:59.101Z,12.57
2018-02-22T22:19:28.852Z,12.48
2018-02-22T22:21:59.027Z,13.02
2018-02-22T22:24:29.642Z,13.00
2018-02-22T22:26:59.470Z,12.30
2018-02-22T22:29:29.181Z,13.15
2018-02-22T22:31:59.744Z,13.70
2018-02-22T22:34:29.461Z,13.07
2018-02-22T22:36:59.336Z,13.65
2018-02-22T22:39:29.089Z,12.25
2018-02-22T22:41:59.571Z,12.50
2018-02-22T22:44:30.009Z,13.05
2018-02-22T22:46:59.741Z,12.85
2018-02-22T22:49:29.518Z,12.32
2018-02-22T22:51:59.236Z,13.32
2018-02-22T22:54:29.752Z,12.30
2018-02-22T22:56:59.630Z,13.80
2018-02-22T22:59:29.634Z,12.90
2018-02-22T23:02:00.107Z,14.05
2018-02-22T23:04:29.818Z,12.48
2018-02-22T23:06:59.588Z,13.57
2018-02-22T23:09:29.348Z,13.30
2018-02-22T23:12:00.219Z,13.57
2018-02-22T23:14:30.019Z,12.98
2018-02-22T23:17:00.501Z,14.30
2018-02-22T23:19:30.395Z,13.57
2018-02-22T23:22:00.158Z,13.57
2018-02-22T23:24:29.910Z,13.00
2018-02-22T23:26:59.699Z,13.38
2018-02-22T23:29:29.485Z,13.85
2018-02-22T23:31:59.233Z,13.55
2018-02-22T23:34:29.045Z,14.23
2018-02-22T23:36:58.783Z,13.02
2018-02-22T23:39:29.080Z,13.98
2018-02-22T23:41:59.704Z,13.43
2018-02-22T23:44:29.477Z,13.10
2018-02-22T23:46:59.348Z,14.27
2018-02-22T23:49:29.193Z,13.15
2018-02-22T23:51:59.716Z,12.52
2018-02-22T23:54:29.485Z,12.15
2018-02-22T23:56:59.329Z,12.05
2018-02-22T23:59:29.016Z,12.20
